SBGL/GIG METAR and TAF weather

Enter ICAO airport designator
Station Type Date Time Source
SBGL METAR 2022/10/01 07:00 UTC NOAA

SBGL 010700Z 01004KT 9999 FEW025 BKN035 19/16 Q1017


Station Type Date Time Source
SBGL Decoded METAR 2022/10/01 07:00 UTC NOAA

Galeao, Brazil (SBGL) 22-49S 043-15W 42M
Oct 01, 2022 - 03:00 AM EDT / 2022.10.01 0700 UTC
Wind: from the N (010 degrees) at 5 MPH (4 KT):0
Visibility: greater than 7 mile(s):0
Sky conditions: mostly cloudy
Temperature: 66 F (19 C)
Dew Point: 60 F (16 C)
Relative Humidity: 82%
Pressure (altimeter): 30.03 in. Hg (1017 hPa)
ob: SBGL 010700Z 01004KT 9999 FEW025 BKN035 19/16 Q1017
cycle: 7

Station Type Date Time Source
SBGL TAF 2022/10/01 06:35 UTC NOAA

TAF SBGL 010028Z 0106/0212 10006KT 7000 BKN017 TN18/0108Z TX23/0117Z
TEMPO 0106/0108 4000 BR BKN014
BECMG 0111/0113 03006KT 4000 BR
BECMG 0114/0116 15006KT 7000 NSW
TEMPO 0120/0124 21005KT 4000 TSRA BKN014 FEW030CB
BECMG 0201/0203 27003KT PROB30
TEMPO 0205/0207 4000 BR BKN010
RMK PHP

Example: see airport list